sensor_id;sensor_type;location;lat;lon;timestamp;pressure;altitude;pressure_sealevel;temperature;humidity
56270;BME280;42176;43.240;27.880;2023-01-30T00:00:56;100625.69;;;-1.09;92.24
56270;BME280;42176;43.240;27.880;2023-01-30T00:03:23;100625.59;;;-0.84;92.99
56270;BME280;42176;43.240;27.880;2023-01-30T00:05:49;100624.50;;;-0.65;92.15
56270;BME280;42176;43.240;27.880;2023-01-30T00:08:15;100624.78;;;0.04;88.75
56270;BME280;42176;43.240;27.880;2023-01-30T00:10:42;100632.38;;;-0.62;89.28
56270;BME280;42176;43.240;27.880;2023-01-30T00:13:07;100622.41;;;-1.29;93.17
56270;BME280;42176;43.240;27.880;2023-01-30T00:15:33;100626.00;;;-0.99;94.48
56270;BME280;42176;43.240;27.880;2023-01-30T00:17:58;100624.94;;;-0.79;93.97
56270;BME280;42176;43.240;27.880;2023-01-30T00:20:24;100619.19;;;-0.39;88.25
56270;BME280;42176;43.240;27.880;2023-01-30T00:22:49;100619.31;;;-0.91;90.49
56270;BME280;42176;43.240;27.880;2023-01-30T00:25:15;100617.25;;;-1.01;92.33
56270;BME280;42176;43.240;27.880;2023-01-30T00:27:40;100620.34;;;-0.86;91.65
56270;BME280;42176;43.240;27.880;2023-01-30T00:32:31;100601.03;;;-0.07;85.86
56270;BME280;42176;43.240;27.880;2023-01-30T00:34:56;100605.19;;;-0.99;89.33
56270;BME280;42176;43.240;27.880;2023-01-30T00:37:22;100596.03;;;-1.14;92.25
56270;BME280;42176;43.240;27.880;2023-01-30T00:39:47;100609.25;;;-0.80;91.47
56270;BME280;42176;43.240;27.880;2023-01-30T00:42:12;100604.66;;;-0.60;89.49
56270;BME280;42176;43.240;27.880;2023-01-30T00:44:56;100597.28;;;-0.16;85.21
56270;BME280;42176;43.240;27.880;2023-01-30T00:47:40;100590.44;;;-0.99;88.34
56270;BME280;42176;43.240;27.880;2023-01-30T00:50:06;100600.84;;;-1.26;93.35
56270;BME280;42176;43.240;27.880;2023-01-30T00:52:32;100602.31;;;-1.07;93.77
56270;BME280;42176;43.240;27.880;2023-01-30T00:54:57;100581.03;;;-0.95;93.03
56270;BME280;42176;43.240;27.880;2023-01-30T00:57:23;100595.59;;;-0.15;86.92
56270;BME280;42176;43.240;27.880;2023-01-30T00:59:48;100598.00;;;-1.07;89.86
56270;BME280;42176;43.240;27.880;2023-01-30T01:02:13;100602.00;;;-1.16;93.20
56270;BME280;42176;43.240;27.880;2023-01-30T01:04:39;100597.25;;;-1.02;93.79
56270;BME280;42176;43.240;27.880;2023-01-30T01:07:09;100593.59;;;-0.82;93.20
56270;BME280;42176;43.240;27.880;2023-01-30T01:09:34;100588.09;;;-0.04;89.03
56270;BME280;42176;43.240;27.880;2023-01-30T01:11:59;100598.28;;;-0.70;88.43
56270;BME280;42176;43.240;27.880;2023-01-30T01:14:25;100588.84;;;-1.21;91.32
56270;BME280;42176;43.240;27.880;2023-01-30T01:16:50;100592.72;;;-1.10;94.00
56270;BME280;42176;43.240;27.880;2023-01-30T01:19:16;100591.50;;;-0.92;93.75
56270;BME280;42176;43.240;27.880;2023-01-30T01:21:41;100584.75;;;-0.29;90.59
56270;BME280;42176;43.240;27.880;2023-01-30T01:24:10;100585.06;;;-0.49;87.03
56270;BME280;42176;43.240;27.880;2023-01-30T01:26:36;100577.88;;;-1.12;90.13
56270;BME280;42176;43.240;27.880;2023-01-30T01:29:02;100579.00;;;-1.04;92.41
56270;BME280;42176;43.240;27.880;2023-01-30T01:31:27;100577.97;;;-0.82;91.11
56270;BME280;42176;43.240;27.880;2023-01-30T01:33:53;100583.81;;;-0.60;90.31
56270;BME280;42176;43.240;27.880;2023-01-30T01:36:18;100578.59;;;-0.02;85.68
56270;BME280;42176;43.240;27.880;2023-01-30T01:38:44;100593.38;;;-0.88;88.80
56270;BME280;42176;43.240;27.880;2023-01-30T01:41:11;100570.19;;;-1.35;93.53
56270;BME280;42176;43.240;27.880;2023-01-30T01:44:15;100582.47;;;-1.03;94.14
56270;BME280;42176;43.240;27.880;2023-01-30T01:49:18;100576.22;;;-0.83;89.83
56270;BME280;42176;43.240;27.880;2023-01-30T01:51:57;100566.63;;;-1.63;95.35
56270;BME280;42176;43.240;27.880;2023-01-30T01:54:43;100583.72;;;-1.19;97.12
56270;BME280;42176;43.240;27.880;2023-01-30T01:57:20;100575.63;;;-1.01;96.33
56270;BME280;42176;43.240;27.880;2023-01-30T01:59:51;100564.00;;;-0.26;90.15
56270;BME280;42176;43.240;27.880;2023-01-30T02:02:18;100582.59;;;-1.00;91.08
56270;BME280;42176;43.240;27.880;2023-01-30T02:04:47;100575.22;;;-1.14;94.66
56270;BME280;42176;43.240;27.880;2023-01-30T02:08:35;100575.81;;;-0.95;94.80
56270;BME280;42176;43.240;27.880;2023-01-30T02:13:23;100569.44;;;-1.05;92.58
56270;BME280;42176;43.240;27.880;2023-01-30T02:15:49;100552.75;;;-1.12;94.83
56270;BME280;42176;43.240;27.880;2023-01-30T02:18:16;100569.97;;;-0.88;94.42
56270;BME280;42176;43.240;27.880;2023-01-30T02:20:47;100562.75;;;-0.68;94.08
56270;BME280;42176;43.240;27.880;2023-01-30T02:43:12;100558.94;;;-1.08;96.16
56270;BME280;42176;43.240;27.880;2023-01-30T02:45:40;100541.03;;;-0.39;90.86
56270;BME280;42176;43.240;27.880;2023-01-30T02:48:35;100560.63;;;-1.09;94.43
56270;BME280;42176;43.240;27.880;2023-01-30T02:51:05;100557.34;;;-1.30;98.56
56270;BME280;42176;43.240;27.880;2023-01-30T02:53:33;100568.44;;;-1.09;98.46
56270;BME280;42176;43.240;27.880;2023-01-30T02:55:59;100566.03;;;-1.02;97.29
56270;BME280;42176;43.240;27.880;2023-01-30T02:58:28;100561.75;;;-0.73;96.70
56270;BME280;42176;43.240;27.880;2023-01-30T03:01:14;100552.34;;;-0.08;93.11
56270;BME280;42176;43.240;27.880;2023-01-30T03:04:00;100557.50;;;-0.98;96.65
56270;BME280;42176;43.240;27.880;2023-01-30T03:06:47;100561.72;;;-1.29;100.00
56270;BME280;42176;43.240;27.880;2023-01-30T03:09:45;100563.34;;;-1.05;100.00
56270;BME280;42176;43.240;27.880;2023-01-30T03:15:00;100546.00;;;-0.49;100.00
56270;BME280;42176;43.240;27.880;2023-01-30T03:17:28;100560.06;;;-1.27;100.00
56270;BME280;42176;43.240;27.880;2023-01-30T03:19:55;100557.69;;;-1.45;100.00
56270;BME280;42176;43.240;27.880;2023-01-30T03:22:22;100568.94;;;-1.20;100.00
56270;BME280;42176;43.240;27.880;2023-01-30T03:24:50;100553.97;;;-0.71;100.00
56270;BME280;42176;43.240;27.880;2023-01-30T03:27:18;100565.50;;;-1.19;100.00
56270;BME280;42176;43.240;27.880;2023-01-30T03:29:44;100555.16;;;-1.44;100.00
56270;BME280;42176;43.240;27.880;2023-01-30T03:32:09;100566.09;;;-1.28;100.00
56270;BME280;42176;43.240;27.880;2023-01-30T03:34:35;100553.81;;;-0.49;100.00
56270;BME280;42176;43.240;27.880;2023-01-30T03:37:01;100550.53;;;-0.99;100.00
56270;BME280;42176;43.240;27.880;2023-01-30T03:39:26;100553.66;;;-1.37;100.00
56270;BME280;42176;43.240;27.880;2023-01-30T03:41:52;100559.22;;;-1.26;100.00
56270;BME280;42176;43.240;27.880;2023-01-30T03:44:18;100557.03;;;-1.12;100.00
56270;BME280;42176;43.240;27.880;2023-01-30T03:46:44;100549.78;;;-0.37;100.00
56270;BME280;42176;43.240;27.880;2023-01-30T03:49:09;100553.72;;;-1.08;100.00
56270;BME280;42176;43.240;27.880;2023-01-30T03:51:35;100561.50;;;-1.61;100.00
56270;BME280;42176;43.240;27.880;2023-01-30T03:54:00;100537.97;;;-1.39;100.00
56270;BME280;42176;43.240;27.880;2023-01-30T03:56:26;100540.56;;;-1.13;100.00
56270;BME280;42176;43.240;27.880;2023-01-30T03:58:51;100532.34;;;-0.40;100.00
56270;BME280;42176;43.240;27.880;2023-01-30T04:01:17;100539.38;;;-0.95;100.00
56270;BME280;42176;43.240;27.880;2023-01-30T04:03:43;100522.81;;;-1.78;100.00
56270;BME280;42176;43.240;27.880;2023-01-30T04:06:08;100532.81;;;-0.24;100.00
56270;BME280;42176;43.240;27.880;2023-01-30T04:08:33;100532.28;;;1.30;96.23
56270;BME280;42176;43.240;27.880;2023-01-30T04:10:59;100540.75;;;-1.07;97.21
56270;BME280;42176;43.240;27.880;2023-01-30T04:13:24;100544.00;;;-1.40;100.00
56270;BME280;42176;43.240;27.880;2023-01-30T04:15:50;100544.72;;;-1.18;100.00
56270;BME280;42176;43.240;27.880;2023-01-30T04:18:15;100542.72;;;-0.99;100.00
56270;BME280;42176;43.240;27.880;2023-01-30T04:20:41;100544.41;;;-0.13;100.00
56270;BME280;42176;43.240;27.880;2023-01-30T04:23:06;100547.94;;;-0.99;100.00
56270;BME280;42176;43.240;27.880;2023-01-30T04:25:32;100549.56;;;-1.29;100.00
56270;BME280;42176;43.240;27.880;2023-01-30T04:27:57;100544.97;;;-1.10;100.00
56270;BME280;42176;43.240;27.880;2023-01-30T04:30:23;100535.84;;;-0.39;100.00
56270;BME280;42176;43.240;27.880;2023-01-30T04:32:48;100548.59;;;-1.32;100.00
56270;BME280;42176;43.240;27.880;2023-01-30T04:35:14;100555.66;;;-1.54;100.00
56270;BME280;42176;43.240;27.880;2023-01-30T04:37:39;100544.88;;;-1.41;100.00
56270;BME280;42176;43.240;27.880;2023-01-30T04:40:05;100541.06;;;-1.25;100.00
56270;BME280;42176;43.240;27.880;2023-01-30T04:42:31;100551.38;;;-1.00;100.00
56270;BME280;42176;43.240;27.880;2023-01-30T04:44:56;100551.72;;;-0.60;100.00
56270;BME280;42176;43.240;27.880;2023-01-30T04:47:21;100535.09;;;-0.93;100.00
56270;BME280;42176;43.240;27.880;2023-01-30T04:49:47;100547.78;;;-1.57;100.00
56270;BME280;42176;43.240;27.880;2023-01-30T04:52:12;100553.81;;;-1.58;100.00
56270;BME280;42176;43.240;27.880;2023-01-30T04:54:38;100555.28;;;-1.41;100.00
56270;BME280;42176;43.240;27.880;2023-01-30T04:57:03;100543.78;;;-1.20;100.00
56270;BME280;42176;43.240;27.880;2023-01-30T04:59:29;100536.31;;;-0.82;100.00
56270;BME280;42176;43.240;27.880;2023-01-30T05:01:54;100544.44;;;-1.53;100.00
56270;BME280;42176;43.240;27.880;2023-01-30T05:04:20;100550.78;;;-1.71;100.00
56270;BME280;42176;43.240;27.880;2023-01-30T05:06:45;100549.63;;;-1.53;100.00
56270;BME280;42176;43.240;27.880;2023-01-30T05:09:11;100550.34;;;-0.77;100.00
56270;BME280;42176;43.240;27.880;2023-01-30T05:11:36;100543.41;;;-1.32;100.00
56270;BME280;42176;43.240;27.880;2023-01-30T05:14:02;100543.84;;;-1.72;100.00
56270;BME280;42176;43.240;27.880;2023-01-30T05:16:28;100551.22;;;-1.58;100.00
56270;BME280;42176;43.240;27.880;2023-01-30T05:18:53;100556.94;;;-1.43;100.00
56270;BME280;42176;43.240;27.880;2023-01-30T05:21:22;100553.97;;;-0.71;100.00
56270;BME280;42176;43.240;27.880;2023-01-30T05:23:50;100550.47;;;-1.28;100.00
56270;BME280;42176;43.240;27.880;2023-01-30T05:26:16;100545.63;;;-2.19;100.00
56270;BME280;42176;43.240;27.880;2023-01-30T05:28:41;100557.44;;;-1.79;100.00
56270;BME280;42176;43.240;27.880;2023-01-30T05:31:10;100557.19;;;-1.61;100.00
56270;BME280;42176;43.240;27.880;2023-01-30T05:33:36;100556.47;;;-1.03;100.00
56270;BME280;42176;43.240;27.880;2023-01-30T05:36:02;100547.78;;;-1.57;100.00
56270;BME280;42176;43.240;27.880;2023-01-30T05:38:28;100548.38;;;-1.90;100.00
56270;BME280;42176;43.240;27.880;2023-01-30T05:41:02;100553.59;;;-1.64;100.00
56270;BME280;42176;43.240;27.880;2023-01-30T05:43:28;100549.44;;;-1.59;100.00
56270;BME280;42176;43.240;27.880;2023-01-30T05:45:55;100560.78;;;-1.31;100.00
56270;BME280;42176;43.240;27.880;2023-01-30T05:48:21;100558.75;;;-0.85;100.00
56270;BME280;42176;43.240;27.880;2023-01-30T05:50:49;100553.00;;;-1.30;100.00
56270;BME280;42176;43.240;27.880;2023-01-30T05:53:16;100556.59;;;-2.04;100.00
56270;BME280;42176;43.240;27.880;2023-01-30T05:55:42;100558.00;;;-2.12;100.00
56270;BME280;42176;43.240;27.880;2023-01-30T05:58:08;100565.09;;;-1.84;100.00
56270;BME280;42176;43.240;27.880;2023-01-30T06:00:34;100560.03;;;-1.53;100.00
56270;BME280;42176;43.240;27.880;2023-01-30T06:02:59;100549.00;;;-1.20;100.00
56270;BME280;42176;43.240;27.880;2023-01-30T06:05:25;100554.00;;;-1.78;100.00
56270;BME280;42176;43.240;27.880;2023-01-30T06:07:50;100557.22;;;-1.85;100.00
56270;BME280;42176;43.240;27.880;2023-01-30T06:10:16;100555.25;;;-1.66;100.00
56270;BME280;42176;43.240;27.880;2023-01-30T06:12:41;100561.38;;;-1.39;100.00
56270;BME280;42176;43.240;27.880;2023-01-30T06:15:07;100542.81;;;-0.96;100.00
56270;BME280;42176;43.240;27.880;2023-01-30T06:17:33;100553.81;;;-1.58;100.00
56270;BME280;42176;43.240;27.880;2023-01-30T06:19:58;100545.28;;;-1.80;100.00
56270;BME280;42176;43.240;27.880;2023-01-30T06:22:24;100553.81;;;-1.58;100.00
56270;BME280;42176;43.240;27.880;2023-01-30T06:24:49;100549.41;;;-1.35;100.00
56270;BME280;42176;43.240;27.880;2023-01-30T06:27:15;100542.34;;;-1.12;100.00
56270;BME280;42176;43.240;27.880;2023-01-30T06:29:40;100539.63;;;-0.87;100.00
56270;BME280;42176;43.240;27.880;2023-01-30T06:32:05;100538.56;;;-0.65;100.00
56270;BME280;42176;43.240;27.880;2023-01-30T06:34:31;100531.06;;;-0.24;100.00
56270;BME280;42176;43.240;27.880;2023-01-30T06:36:56;100536.81;;;-1.21;100.00
56270;BME280;42176;43.240;27.880;2023-01-30T06:39:22;100534.97;;;-2.03;100.00
56270;BME280;42176;43.240;27.880;2023-01-30T06:41:47;100543.91;;;-1.69;100.00
56270;BME280;42176;43.240;27.880;2023-01-30T06:44:13;100544.91;;;-1.39;100.00
56270;BME280;42176;43.240;27.880;2023-01-30T06:46:38;100528.22;;;-0.62;100.00
56270;BME280;42176;43.240;27.880;2023-01-30T06:49:03;100534.03;;;-1.27;100.00
56270;BME280;42176;43.240;27.880;2023-01-30T06:51:29;100529.00;;;-1.74;100.00
56270;BME280;42176;43.240;27.880;2023-01-30T06:53:54;100537.69;;;-1.48;100.00
56270;BME280;42176;43.240;27.880;2023-01-30T06:56:20;100538.41;;;-1.26;100.00
56270;BME280;42176;43.240;27.880;2023-01-30T06:58:45;100530.53;;;-1.00;100.00
56270;BME280;42176;43.240;27.880;2023-01-30T07:01:11;100527.84;;;-0.74;100.00
56270;BME280;42176;43.240;27.880;2023-01-30T07:03:36;100528.50;;;-0.53;100.00
56270;BME280;42176;43.240;27.880;2023-01-30T07:06:02;100511.66;;;-0.35;100.00
56270;BME280;42176;43.240;27.880;2023-01-30T07:08:27;100519.28;;;-0.11;100.00
56270;BME280;42176;43.240;27.880;2023-01-30T07:10:53;100515.00;;;-0.39;100.00
56270;BME280;42176;43.240;27.880;2023-01-30T07:13:19;100506.13;;;-1.33;100.00
56270;BME280;42176;43.240;27.880;2023-01-30T07:15:44;100521.00;;;-1.55;100.00
56270;BME280;42176;43.240;27.880;2023-01-30T07:18:10;100522.88;;;-1.23;100.00
56270;BME280;42176;43.240;27.880;2023-01-30T07:20:36;100524.25;;;-0.49;100.00
56270;BME280;42176;43.240;27.880;2023-01-30T07:23:01;100519.03;;;-0.80;100.00
56270;BME280;42176;43.240;27.880;2023-01-30T07:25:27;100503.69;;;-1.80;100.00
56270;BME280;42176;43.240;27.880;2023-01-30T07:27:55;100524.47;;;-1.28;100.00
56270;BME280;42176;43.240;27.880;2023-01-30T07:30:22;100519.00;;;-1.09;100.00
56270;BME280;42176;43.240;27.880;2023-01-30T07:32:55;100458.59;;;-0.69;100.00
56270;BME280;42176;43.240;27.880;2023-01-30T07:35:22;100521.78;;;-1.02;100.00
56270;BME280;42176;43.240;27.880;2023-01-30T07:37:48;100509.88;;;-1.50;100.00
56270;BME280;42176;43.240;27.880;2023-01-30T07:40:15;100531.03;;;-1.12;100.00
56270;BME280;42176;43.240;27.880;2023-01-30T07:42:41;100533.63;;;-0.85;100.00
56270;BME280;42176;43.240;27.880;2023-01-30T07:45:07;100519.06;;;-0.19;100.00
56270;BME280;42176;43.240;27.880;2023-01-30T07:47:33;100519.72;;;-0.85;100.00
56270;BME280;42176;43.240;27.880;2023-01-30T07:49:59;100519.84;;;-1.10;100.00
56270;BME280;42176;43.240;27.880;2023-01-30T07:52:24;100526.19;;;-0.72;100.00
56270;BME280;42176;43.240;27.880;2023-01-30T07:54:50;100520.13;;;-0.10;100.00
56270;BME280;42176;43.240;27.880;2023-01-30T07:57:15;100518.56;;;-0.66;100.00
56270;BME280;42176;43.240;27.880;2023-01-30T07:59:41;100523.75;;;-1.50;100.00
56270;BME280;42176;43.240;27.880;2023-01-30T08:02:08;100496.97;;;-1.20;100.00
56270;BME280;42176;43.240;27.880;2023-01-30T08:04:34;100516.38;;;-0.81;100.00
56270;BME280;42176;43.240;27.880;2023-01-30T08:06:59;100514.81;;;-0.15;100.00
56270;BME280;42176;43.240;27.880;2023-01-30T08:09:25;100511.22;;;-0.80;100.00
56270;BME280;42176;43.240;27.880;2023-01-30T08:11:50;100503.13;;;-0.89;100.00
56270;BME280;42176;43.240;27.880;2023-01-30T08:14:15;100504.03;;;-0.58;100.00
56270;BME280;42176;43.240;27.880;2023-01-30T08:16:41;100503.06;;;-0.31;100.00
56270;BME280;42176;43.240;27.880;2023-01-30T08:19:06;100504.47;;;-0.12;100.00
56270;BME280;42176;43.240;27.880;2023-01-30T08:21:32;100505.00;;;-0.85;100.00
56270;BME280;42176;43.240;27.880;2023-01-30T08:23:58;100500.59;;;-0.87;100.00
56270;BME280;42176;43.240;27.880;2023-01-30T08:26:23;100491.09;;;-0.55;100.00
56270;BME280;42176;43.240;27.880;2023-01-30T08:28:49;100485.94;;;-0.23;100.00
56270;BME280;42176;43.240;27.880;2023-01-30T08:31:16;100483.47;;;0.16;100.00
56270;BME280;42176;43.240;27.880;2023-01-30T08:33:42;100474.56;;;-0.57;100.00
56270;BME280;42176;43.240;27.880;2023-01-30T08:36:08;100476.63;;;-0.75;100.00
56270;BME280;42176;43.240;27.880;2023-01-30T08:38:33;100476.00;;;-0.36;100.00
56270;BME280;42176;43.240;27.880;2023-01-30T08:40:59;100466.75;;;0.42;100.00
56270;BME280;42176;43.240;27.880;2023-01-30T08:43:25;100470.28;;;-0.23;100.00
56270;BME280;42176;43.240;27.880;2023-01-30T08:45:55;100467.41;;;-0.64;100.00
56270;BME280;42176;43.240;27.880;2023-01-30T08:48:20;100460.06;;;-0.47;100.00
56270;BME280;42176;43.240;27.880;2023-01-30T08:50:46;100441.03;;;-0.12;100.00
56270;BME280;42176;43.240;27.880;2023-01-30T08:53:11;100457.06;;;0.73;100.00
56270;BME280;42176;43.240;27.880;2023-01-30T08:55:37;100451.56;;;0.26;100.00
56270;BME280;42176;43.240;27.880;2023-01-30T08:58:02;100445.56;;;-0.05;100.00
56270;BME280;42176;43.240;27.880;2023-01-30T09:00:28;100442.06;;;0.28;100.00
56270;BME280;42176;43.240;27.880;2023-01-30T09:02:55;100431.56;;;1.01;100.00
56270;BME280;42176;43.240;27.880;2023-01-30T09:05:21;100430.41;;;0.88;100.00
56270;BME280;42176;43.240;27.880;2023-01-30T09:07:46;100414.16;;;0.24;100.00
56270;BME280;42176;43.240;27.880;2023-01-30T09:10:12;100430.72;;;0.64;100.00
56270;BME280;42176;43.240;27.880;2023-01-30T09:12:37;100407.38;;;1.53;100.00
56270;BME280;42176;43.240;27.880;2023-01-30T09:15:03;100418.84;;;1.18;100.00
56270;BME280;42176;43.240;27.880;2023-01-30T09:17:31;100410.34;;;0.48;100.00
56270;BME280;42176;43.240;27.880;2023-01-30T09:19:57;100415.00;;;1.90;100.00
56270;BME280;42176;43.240;27.880;2023-01-30T09:22:22;100401.25;;;4.00;90.49
56270;BME280;42176;43.240;27.880;2023-01-30T09:24:48;100405.50;;;1.95;91.02
56270;BME280;42176;43.240;27.880;2023-01-30T09:27:13;100401.31;;;1.54;100.00
56270;BME280;42176;43.240;27.880;2023-01-30T09:29:39;100393.78;;;2.23;100.00
56270;BME280;42176;43.240;27.880;2023-01-30T09:32:04;100385.81;;;2.74;97.18
56270;BME280;42176;43.240;27.880;2023-01-30T09:34:29;100385.91;;;2.80;91.99
56270;BME280;42176;43.240;27.880;2023-01-30T09:36:58;100385.22;;;1.80;95.56
56270;BME280;42176;43.240;27.880;2023-01-30T09:39:25;100385.34;;;0.56;100.00
56270;BME280;42176;43.240;27.880;2023-01-30T09:53:13;100364.38;;;1.85;100.00
56270;BME280;42176;43.240;27.880;2023-01-30T09:55:42;100346.34;;;2.58;98.22
56270;BME280;42176;43.240;27.880;2023-01-30T09:58:21;100343.50;;;2.44;92.99
56270;BME280;42176;43.240;27.880;2023-01-30T10:00:53;100347.44;;;1.62;98.32
56270;BME280;42176;43.240;27.880;2023-01-30T10:03:36;100337.88;;;1.64;100.00
56270;BME280;42176;43.240;27.880;2023-01-30T10:06:06;100336.22;;;2.23;99.62
56270;BME280;42176;43.240;27.880;2023-01-30T10:09:01;100327.59;;;2.94;95.88
56270;BME280;42176;43.240;27.880;2023-01-30T10:23:30;100291.47;;;2.68;93.65
56270;BME280;42176;43.240;27.880;2023-01-30T10:26:01;100293.06;;;1.95;97.72
56270;BME280;42176;43.240;27.880;2023-01-30T10:31:22;100282.44;;;3.16;91.23
56270;BME280;42176;43.240;27.880;2023-01-30T10:36:53;100272.00;;;2.44;95.21
56270;BME280;42176;43.240;27.880;2023-01-30T10:39:25;100263.50;;;3.44;88.54
56270;BME280;42176;43.240;27.880;2023-01-30T10:42:13;100258.44;;;2.76;90.28
56270;BME280;42176;43.240;27.880;2023-01-30T10:44:43;100247.38;;;2.30;94.72
56270;BME280;42176;43.240;27.880;2023-01-30T10:49:45;100239.25;;;3.70;88.45
56270;BME280;42176;43.240;27.880;2023-01-30T10:52:31;100238.75;;;4.28;83.94
56270;BME280;42176;43.240;27.880;2023-01-30T11:00:01;100216.28;;;3.34;85.24
56270;BME280;42176;43.240;27.880;2023-01-30T11:02:39;100222.59;;;3.63;80.13
56270;BME280;42176;43.240;27.880;2023-01-30T11:07:41;100211.56;;;3.01;87.09
56270;BME280;42176;43.240;27.880;2023-01-30T11:10:15;100205.28;;;3.84;82.05
56270;BME280;42176;43.240;27.880;2023-01-30T11:12:41;100195.28;;;3.31;83.26
56270;BME280;42176;43.240;27.880;2023-01-30T11:15:07;100209.56;;;2.75;86.98
56270;BME280;42176;43.240;27.880;2023-01-30T11:17:34;100193.31;;;3.09;87.15
56270;BME280;42176;43.240;27.880;2023-01-30T11:20:10;100191.03;;;3.47;83.86
56270;BME280;42176;43.240;27.880;2023-01-30T11:22:47;100184.34;;;3.93;78.16
56270;BME280;42176;43.240;27.880;2023-01-30T11:25:17;100180.22;;;3.07;81.30
56270;BME280;42176;43.240;27.880;2023-01-30T11:27:54;100173.94;;;2.14;87.90
56270;BME280;42176;43.240;27.880;2023-01-30T11:30:22;100166.00;;;2.80;86.44
56270;BME280;42176;43.240;27.880;2023-01-30T11:33:04;100166.53;;;3.42;79.25
56270;BME280;42176;43.240;27.880;2023-01-30T11:35:30;100161.50;;;2.70;83.43
56270;BME280;42176;43.240;27.880;2023-01-30T11:38:32;100160.56;;;2.62;89.22
56270;BME280;42176;43.240;27.880;2023-01-30T11:43:37;100149.00;;;3.35;83.01
56270;BME280;42176;43.240;27.880;2023-01-30T11:46:06;100152.53;;;3.43;78.36
56270;BME280;42176;43.240;27.880;2023-01-30T11:48:34;100144.00;;;2.66;82.59
56270;BME280;42176;43.240;27.880;2023-01-30T11:51:08;100140.03;;;3.05;84.58
56270;BME280;42176;43.240;27.880;2023-01-30T11:53:40;100144.75;;;3.48;83.05
56270;BME280;42176;43.240;27.880;2023-01-30T11:56:15;100128.28;;;3.72;80.29
56270;BME280;42176;43.240;27.880;2023-01-30T11:58:50;100125.69;;;2.63;85.80
56270;BME280;42176;43.240;27.880;2023-01-30T12:01:25;100132.06;;;2.11;91.06
56270;BME280;42176;43.240;27.880;2023-01-30T12:03:53;100125.72;;;2.69;88.18
56270;BME280;42176;43.240;27.880;2023-01-30T12:06:23;100123.53;;;3.17;85.11
56270;BME280;42176;43.240;27.880;2023-01-30T12:08:53;100128.09;;;3.44;80.20
56270;BME280;42176;43.240;27.880;2023-01-30T12:11:26;100112.44;;;2.50;83.57
56270;BME280;42176;43.240;27.880;2023-01-30T12:13:55;100110.72;;;2.51;86.82
56270;BME280;42176;43.240;27.880;2023-01-30T12:16:43;100105.91;;;2.99;83.80
56270;BME280;42176;43.240;27.880;2023-01-30T12:19:32;100108.84;;;3.36;80.15
56270;BME280;42176;43.240;27.880;2023-01-30T12:22:15;100104.53;;;2.44;81.98
56270;BME280;42176;43.240;27.880;2023-01-30T12:24:57;100101.41;;;1.97;87.41
56270;BME280;42176;43.240;27.880;2023-01-30T12:27:41;100086.31;;;2.53;86.40
56270;BME280;42176;43.240;27.880;2023-01-30T12:30:32;100094.88;;;3.43;80.08
56270;BME280;42176;43.240;27.880;2023-01-30T12:33:02;100097.75;;;2.62;80.83
56270;BME280;42176;43.240;27.880;2023-01-30T12:41:45;100079.47;;;2.68;83.45
56270;BME280;42176;43.240;27.880;2023-01-30T12:44:35;100085.41;;;1.76;88.14
56270;BME280;42176;43.240;27.880;2023-01-30T12:55:32;100067.13;;;1.76;88.98
56270;BME280;42176;43.240;27.880;2023-01-30T13:03:44;100060.13;;;2.52;84.06
56270;BME280;42176;43.240;27.880;2023-01-30T13:09:29;100063.75;;;1.83;92.31
56270;BME280;42176;43.240;27.880;2023-01-30T13:22:53;100057.84;;;2.00;94.14
56270;BME280;42176;43.240;27.880;2023-01-30T13:25:35;100052.50;;;2.75;90.04
56270;BME280;42176;43.240;27.880;2023-01-30T13:28:09;100055.53;;;2.27;89.53
56270;BME280;42176;43.240;27.880;2023-01-30T13:30:38;100051.28;;;1.63;92.47
56270;BME280;42176;43.240;27.880;2023-01-30T13:33:12;100040.44;;;2.03;93.13
56270;BME280;42176;43.240;27.880;2023-01-30T13:41:34;100042.53;;;0.97;95.39
56270;BME280;42176;43.240;27.880;2023-01-30T13:44:05;100037.06;;;1.41;95.66
56270;BME280;42176;43.240;27.880;2023-01-30T13:46:36;100021.84;;;1.77;92.58
56270;BME280;42176;43.240;27.880;2023-01-30T13:51:44;100026.72;;;1.49;89.71
56270;BME280;42176;43.240;27.880;2023-01-30T14:00:50;100016.78;;;1.92;83.66
56270;BME280;42176;43.240;27.880;2023-01-30T14:03:29;99993.72;;;1.57;90.77
56270;BME280;42176;43.240;27.880;2023-01-30T14:11:30;100004.66;;;1.27;87.73
56270;BME280;42176;43.240;27.880;2023-01-30T14:14:22;99998.63;;;1.32;92.20
56270;BME280;42176;43.240;27.880;2023-01-30T14:16:51;99993.75;;;1.60;90.83
56270;BME280;42176;43.240;27.880;2023-01-30T14:21:56;99999.50;;;1.30;92.97
56270;BME280;42176;43.240;27.880;2023-01-30T14:24:22;100003.47;;;1.04;97.47
56270;BME280;42176;43.240;27.880;2023-01-30T14:39:59;99979.63;;;2.24;88.37
56270;BME280;42176;43.240;27.880;2023-01-30T14:42:27;99988.28;;;1.39;92.54
56270;BME280;42176;43.240;27.880;2023-01-30T14:45:12;99987.44;;;0.26;97.73
56270;BME280;42176;43.240;27.880;2023-01-30T14:47:38;99978.69;;;0.74;100.00
56270;BME280;42176;43.240;27.880;2023-01-30T14:50:16;99982.59;;;1.04;98.58
56270;BME280;42176;43.240;27.880;2023-01-30T14:52:42;99983.53;;;1.80;93.56
56270;BME280;42176;43.240;27.880;2023-01-30T14:55:20;99983.41;;;1.02;97.09
56270;BME280;42176;43.240;27.880;2023-01-30T14:58:01;99992.47;;;0.67;100.00
56270;BME280;42176;43.240;27.880;2023-01-30T15:00:33;99991.19;;;0.97;100.00
56270;BME280;42176;43.240;27.880;2023-01-30T15:03:06;99977.34;;;1.72;97.88
56270;BME280;42176;43.240;27.880;2023-01-30T15:05:39;99980.78;;;1.00;98.90
56270;BME280;42176;43.240;27.880;2023-01-30T15:08:11;99975.53;;;0.40;100.00
56270;BME280;42176;43.240;27.880;2023-01-30T15:16:32;99963.13;;;1.47;95.27